Cary, NC (27511)

4:52 PM EDT on October 31, 2014 (GMT -0400)
Ridgepath | Change Station
CLOSE
Current Station
Personal Weather Station
Location: Cary, NC
Elevation: 436 ft
Nearby Weather Stations

Elev 436 ft 35.75 °N, 78.78 °W | Updated 5 minutes ago

Overcast
Overcast
58.5 °F
Feels Like 58.5 °F
N
0.0
Wind Variable Wind from South

Today
High -- | Low -- °F
--% Chance of Precip.
Yesterday
High -- | Low -- °F
Precip. -- in
7:36 AM 6:20 PM
First Quarter, 59% visible
Pressure 29.83 in
Visibility 10.0 miles
Clouds Few 4300 ft
Mostly Cloudy 5000 ft
Overcast 20000 ft
Dew Point 46 °F
Humidity 64%
Rainfall 0.00 in
Snow Depth Not available.
UV 1 out of 12
Pollen .10 out of 12
Air Quality Not available.
Flu Activity Not available.
METAR KRDU 311951Z 01005KT 10SM FEW043 BKN050 OVC200 15/05 A2983 RMK AO2 SLP102 T01500050

More Conditions Fewer Conditions

Pressure 29.83 in
Visibility 10.0 miles
Clouds Few 4300 ft
Mostly Cloudy 5000 ft
Overcast 20000 ft
Dew Point 46 °F
Humidity 64%
Rainfall 0.00 in
Snow Depth Not available.
UV 1 out of 12
Pollen .10 out of 12
Air Quality Not available.
Flu Activity Not available.
METAR KRDU 311951Z 01005KT 10SM FEW043 BKN050 OVC200 15/05 A2983 RMK AO2 SLP102 T01500050

More Conditions Fewer Conditions

10-Day Weather Forecast

Almanac

Astronomy

Oct. 31, 2014 Rise Set
Actual Time
Civil Twilight
Nautical Twilight
Astronomical Twilight
Moon
Length of Visible Light
Length of Day
Tomorrow will be .
, % of the Moon is Illuminated

Today's Extremes

State Highs State Lows

Community

WunderPhotos

Upload Photos

1,766,734 photos uploaded!

WunderBlogs® & News

Nearby

Air Quality

  Air Quality AQ Index Pollutant
Not available.

Snow Depth

Station Depth Elevation

Earthquake Activity

City Distance Mag. Time & Date
Minimum magnitude displayed is 2.5.

Coastal Water Temperatures

Place Temperature

Nearby Weather Stations